Meteo Giornale » Osservazioni meteo Stati Uniti (USA) » Deland
ore: 01:30 - Osservazioni Meteo Deland
Lat. 29° 4' N Lon. 81° 17' W Alt. 24 metri s.l.m.
25 °C
Sereno
Temp. 24 Ore
23 °C
32 °C
Nord
0 Km/h
Dew point 24 °C
Umidità 94 %
Visibilità 10 Km
Il sole sorge alle ore 07:03
Il sole tramonta alle ore 19:47
| Data e Ora | Cielo e Fenomeni | T °C | DP °C | Um. % | Pres. hPa | Vis. km | Vento km/h | |
|---|---|---|---|---|---|---|---|---|
| Oggi h: 01:30 | Sereno | 25 | 24 | 94 | 1017 | 10 | N 0 | |
| Oggi h: 01:10 | Sereno | 25 | 24 | 94 | 1017 | 10 | N 0 | |
| Oggi h: 00:50 | Sereno | 25 | 24 | 94 | 1018 | 10 | N 0 | |
| Oggi h: 00:30 | Sereno | 26 | 25 | 94 | 1018 | 10 | N 5.5 | |
| Oggi h: 00:10 | Sereno | 26 | 25 | 94 | 1018 | 10 | N 7.4 | |
| Ieri h: 23:50 | Sereno | 26 | 25 | 94 | 1018 | 10 | N 7.4 | |
| Ieri h: 23:30 | Sereno | 26 | 24 | 88 | 1018 | 10 | N 5.5 | |
| Ieri h: 23:10 | Sereno | 26 | 24 | 88 | 1018 | 10 | N/NO 7.4 | |
| Ieri h: 22:50 | Sereno | 26 | 24 | 88 | 1018 | 10 | N 7.4 | |
| Ieri h: 22:30 | Sereno | 26 | 24 | 88 | 1018 | 10 | N 7.4 | |
| Ieri h: 22:10 | Sereno | 26 | 24 | 88 | 1018 | 10 | N 5.5 | |
| Ieri h: 21:50 | Sereno | 26 | 24 | 88 | 1018 | 10 | N 7.4 | |
| Ieri h: 21:30 | Sereno | 26 | 24 | 88 | 1018 | 10 | N 9.3 | |
| Ieri h: 21:10 | Sereno | 27 | 24 | 83 | 1017 | 10 | N 5.5 | |
| Ieri h: 20:50 | Sereno | 27 | 24 | 83 | 1017 | 10 | N 7.4 | |
| Ieri h: 20:30 | Sereno | 27 | 24 | 83 | 1017 | 10 | N 0 | |
| Ieri h: 20:10 | Sereno | 27 | 25 | 88 | 1017 | 10 | N 0 | |
| Ieri h: 19:50 | Sereno | 27 | 25 | 88 | 1017 | 10 | N 0 | |
| Ieri h: 19:30 | Sereno | 27 | 25 | 88 | 1017 | 10 | N 5.5 | |
| Ieri h: 19:10 | Sereno | 28 | 25 | 83 | 1017 | 10 | N/NE 7.4 | |
| Ieri h: 18:50 | Sereno | 28 | 25 | 83 | 1017 | 10 | NE 7.4 | |
| Ieri h: 18:30 | Nuvoloso | 28 | 25 | 83 | 1017 | 10 | NE 7.4 | |
| Ieri h: 18:10 | Molto Nuvoloso | 28 | 25 | 83 | 1017 | 10 | NE 7.4 | |
| Ieri h: 17:50 | Nuvoloso | 28 | 24 | 78 | 1017 | 10 | NE 7.4 | |
| Ieri h: 17:30 | Sereno | 28 | 24 | 78 | 1017 | 10 | NE 7.4 | |
| Ieri h: 17:10 | Temporale | 28 | 24 | 78 | 1017 | 10 | E/NE 9.3 | |
| Ieri h: 16:50 | Temporale | 29 | 24 | 74 | 1017 | 10 | NE 9.3 | |
| Ieri h: 16:30 | Nuvoloso | 29 | 23 | 70 | 1017 | 10 | E/NE 13 | |
| Ieri h: 16:10 | Temporale nelle vicinanze | 30 | 23 | 66 | 1017 | 10 | E/NE 20.3 | |
| Ieri h: 15:50 | Molto Nuvoloso | 31 | 23 | 62 | 1017 | 10 | NE 16.7 | |
| Ieri h: 15:30 | Temporale nelle vicinanze | 30 | 23 | 66 | 1017 | 10 | NE 18.5 | |
| Ieri h: 15:10 | Coperto | 31 | 24 | 66 | 1017 | 10 | E/NE 20.3 | |
| Ieri h: 14:50 | Molto Nuvoloso | 32 | 24 | 62 | 1017 | 10 | NE 16.7 | |
| Ieri h: 14:30 | Nuvoloso | 31 | 24 | 66 | 1017 | 10 | N/NE 14.8 | |
| Ieri h: 14:10 | Sereno | 31 | 24 | 66 | 1017 | 10 | NE 11.1 | |
| Ieri h: 13:50 | Sereno | 30 | 24 | 70 | 1017 | 10 | N/NE 11.1 | |
| Ieri h: 13:30 | Sereno | 29 | 25 | 79 | 1018 | 10 | N/NE 11.1 | |
| Ieri h: 13:10 | Sereno | 28 | 25 | 83 | 1018 | 10 | NE 7.4 | |
| Ieri h: 12:50 | Temporale nelle vicinanze | 28 | 25 | 83 | 1019 | 10 | NE 11.1 | |
| Ieri h: 12:30 | Nuvoloso | 27 | 24 | 83 | 1019 | 10 | E/NE 16.7 | |
| Ieri h: 12:10 | Sereno | 30 | 25 | 74 | 1019 | 10 | NE 20.3 | |
| Ieri h: 11:50 | Sereno | 31 | 23 | 62 | 1019 | 10 | N 0 | |
| Ieri h: 11:30 | Sereno | 31 | 23 | 62 | 1019 | 10 | NO 9.3 | |
| Ieri h: 11:10 | Nuvoloso | 31 | 23 | 62 | 1019 | 10 | N/NE 7.4 | |
| Ieri h: 10:50 | Molto Nuvoloso | 31 | 24 | 66 | 1019 | 10 | N 0 | |
| Ieri h: 10:30 | Molto Nuvoloso | 30 | 24 | 70 | 1019 | 10 | N 0 | |
| Ieri h: 10:10 | Nuvoloso | 29 | 25 | 79 | 1018 | 10 | N 5.5 | |
| Ieri h: 09:50 | Nuvoloso | 29 | 25 | 79 | 1018 | 10 | N 0 | |
| Ieri h: 09:30 | Sereno | 28 | 25 | 83 | 1018 | 10 | N 7.4 | |
| Ieri h: 09:10 | Sereno | 27 | 25 | 88 | 1018 | 10 | N 9.3 | |
| Ieri h: 08:50 | Sereno | 26 | 25 | 94 | 1018 | 10 | N 5.5 | |
| Ieri h: 08:30 | Sereno | 25 | 24 | 94 | 1018 | 10 | N 5.5 | |
| Ieri h: 08:10 | Nuvoloso | 24 | 24 | 100 | 1018 | 10 | N 5.5 | |
| Ieri h: 07:50 | Coperto | 24 | 23 | 94 | 1018 | 10 | N 0 | |
| Ieri h: 07:30 | Nuvoloso | 24 | 23 | 94 | 1017 | 10 | N 0 | |
| Ieri h: 07:10 | Sereno | 24 | 23 | 94 | 1017 | 10 | N 0 | |
| Ieri h: 06:50 | Nuvoloso | 24 | 23 | 94 | 1017 | 10 | N 0 | |
| Ieri h: 06:30 | Nuvoloso | 24 | 23 | 94 | 1017 | 10 | N 5.5 | |
| Ieri h: 06:10 | Sereno | 24 | 23 | 94 | 1016 | 10 | N 0 | |
| Ieri h: 05:50 | Sereno | 24 | 23 | 94 | 1017 | 10 | N 0 | |
| Ieri h: 05:30 | Sereno | 23 | 23 | 100 | 1016 | 10 | N 0 | |
| Ieri h: 05:10 | Sereno | 24 | 23 | 94 | 1017 | 10 | N 0 | |
| Ieri h: 04:50 | Sereno | 24 | 24 | 100 | 1017 | 10 | N 0 | |
| Ieri h: 04:30 | Sereno | 24 | 23 | 94 | 1016 | 10 | N 0 | |
| Ieri h: 04:10 | Sereno | 24 | 23 | 94 | 1017 | 10 | N 5.5 | |
| Ieri h: 03:50 | Sereno | 24 | 23 | 94 | 1017 | 10 | N 0 | |
| Ieri h: 03:30 | Sereno | 24 | 24 | 100 | 1017 | 10 | N 0 | |
| Ieri h: 03:10 | Sereno | 24 | 23 | 94 | 1017 | 10 | N 0 | |
| Ieri h: 02:50 | Nuvoloso | 25 | 24 | 94 | 1017 | 10 | N 0 | |
| Ieri h: 02:30 | Nuvoloso | 25 | 24 | 94 | 1017 | 10 | N 0 | |
| Ieri h: 02:10 | Sereno | 25 | 24 | 94 | 1017 | 10 | N 0 | |
| Ieri h: 01:50 | Sereno | 25 | 24 | 94 | 1017 | 10 | N 0 | |



